LPMA/FNC METAR and TAF weather

Enter ICAO airport designator
Station Type Date Time Source
LPMA METAR 2022/01/19 20:00 UTC NOAA

LPMA 192000Z 17010KT 9999 SCT015 18/13 Q1021


Station Type Date Time Source
LPMA Decoded METAR 2022/01/19 20:00 UTC NOAA

Aeroporto Da Madeira, Portugal (LPMA) 32-41-52N 016-46-28W
Jan 19, 2022 - 03:00 PM EST / 2022.01.19 2000 UTC
Wind: from the S (170 degrees) at 12 MPH (10 KT):0
Visibility: greater than 7 mile(s):0
Sky conditions: partly cloudy
Temperature: 64 F (18 C)
Dew Point: 55 F (13 C)
Relative Humidity: 72%
Pressure (altimeter): 30.15 in. Hg (1021 hPa)
ob: LPMA 192000Z 17010KT 9999 SCT015 18/13 Q1021
cycle: 20

Station Type Date Time Source
LPMA TAF 2022/01/19 18:18 UTC NOAA

TAF LPMA 191700Z 1918/2018 16013KT 9999 SCT015
TEMPO 1918/2018 17018G28KT BKN013

Example: see airport list